sensor_id;sensor_type;location;lat;lon;timestamp;temperature;humidity
13970;DHT22;7057;49.984;8.404;2023-07-28T00:00:14;18.00;99.90
13970;DHT22;7057;49.984;8.404;2023-07-28T00:02:41;18.00;99.90
13970;DHT22;7057;49.984;8.404;2023-07-28T00:05:08;18.00;99.90
13970;DHT22;7057;49.984;8.404;2023-07-28T00:07:36;17.90;99.90
13970;DHT22;7057;49.984;8.404;2023-07-28T00:10:03;18.00;99.90
13970;DHT22;7057;49.984;8.404;2023-07-28T00:12:31;18.00;99.90
13970;DHT22;7057;49.984;8.404;2023-07-28T00:14:59;18.00;99.90
13970;DHT22;7057;49.984;8.404;2023-07-28T00:17:26;18.00;99.90
13970;DHT22;7057;49.984;8.404;2023-07-28T00:19:54;18.00;99.90
13970;DHT22;7057;49.984;8.404;2023-07-28T00:22:21;17.90;99.90
13970;DHT22;7057;49.984;8.404;2023-07-28T00:24:48;18.00;99.90
13970;DHT22;7057;49.984;8.404;2023-07-28T00:27:15;17.90;99.90
13970;DHT22;7057;49.984;8.404;2023-07-28T00:29:42;18.00;99.90
13970;DHT22;7057;49.984;8.404;2023-07-28T00:32:11;18.00;99.90
13970;DHT22;7057;49.984;8.404;2023-07-28T00:34:38;17.90;99.90
13970;DHT22;7057;49.984;8.404;2023-07-28T00:37:05;17.90;99.90
13970;DHT22;7057;49.984;8.404;2023-07-28T00:39:32;17.90;99.90
13970;DHT22;7057;49.984;8.404;2023-07-28T00:41:59;17.90;99.90
13970;DHT22;7057;49.984;8.404;2023-07-28T00:44:27;17.90;99.90
13970;DHT22;7057;49.984;8.404;2023-07-28T00:46:54;17.90;99.90
13970;DHT22;7057;49.984;8.404;2023-07-28T00:49:22;17.90;99.90
13970;DHT22;7057;49.984;8.404;2023-07-28T00:51:51;17.90;99.90
13970;DHT22;7057;49.984;8.404;2023-07-28T00:54:18;17.80;99.90
13970;DHT22;7057;49.984;8.404;2023-07-28T00:56:46;17.80;99.90
13970;DHT22;7057;49.984;8.404;2023-07-28T00:59:15;17.90;99.90
13970;DHT22;7057;49.984;8.404;2023-07-28T01:01:42;17.90;99.90
13970;DHT22;7057;49.984;8.404;2023-07-28T01:04:09;17.90;99.90
13970;DHT22;7057;49.984;8.404;2023-07-28T01:06:44;17.90;99.90
13970;DHT22;7057;49.984;8.404;2023-07-28T01:09:16;17.80;99.90
13970;DHT22;7057;49.984;8.404;2023-07-28T01:11:54;17.80;99.90
13970;DHT22;7057;49.984;8.404;2023-07-28T01:14:22;17.80;99.90
13970;DHT22;7057;49.984;8.404;2023-07-28T01:16:49;17.80;99.90
13970;DHT22;7057;49.984;8.404;2023-07-28T01:19:18;17.90;99.90
13970;DHT22;7057;49.984;8.404;2023-07-28T01:21:52;17.80;99.90
13970;DHT22;7057;49.984;8.404;2023-07-28T01:24:25;17.80;99.90
13970;DHT22;7057;49.984;8.404;2023-07-28T01:26:56;17.80;99.90
13970;DHT22;7057;49.984;8.404;2023-07-28T01:29:24;17.80;99.90
13970;DHT22;7057;49.984;8.404;2023-07-28T01:31:51;17.80;99.90
13970;DHT22;7057;49.984;8.404;2023-07-28T01:34:18;17.80;99.90
13970;DHT22;7057;49.984;8.404;2023-07-28T01:36:46;17.80;99.90
13970;DHT22;7057;49.984;8.404;2023-07-28T01:39:13;17.80;99.90
13970;DHT22;7057;49.984;8.404;2023-07-28T01:41:40;17.90;99.90
13970;DHT22;7057;49.984;8.404;2023-07-28T01:44:10;17.90;99.90
13970;DHT22;7057;49.984;8.404;2023-07-28T01:46:38;17.80;99.90
13970;DHT22;7057;49.984;8.404;2023-07-28T01:49:06;17.80;99.90
13970;DHT22;7057;49.984;8.404;2023-07-28T01:51:33;17.80;99.90
13970;DHT22;7057;49.984;8.404;2023-07-28T01:54:00;17.80;99.90
13970;DHT22;7057;49.984;8.404;2023-07-28T01:56:27;17.80;99.90
13970;DHT22;7057;49.984;8.404;2023-07-28T01:58:54;17.90;99.90
13970;DHT22;7057;49.984;8.404;2023-07-28T02:01:23;17.90;99.90
13970;DHT22;7057;49.984;8.404;2023-07-28T02:03:50;17.80;99.90
13970;DHT22;7057;49.984;8.404;2023-07-28T02:06:17;17.80;99.90
13970;DHT22;7057;49.984;8.404;2023-07-28T02:08:44;17.80;99.90
13970;DHT22;7057;49.984;8.404;2023-07-28T02:11:11;17.80;99.90
13970;DHT22;7057;49.984;8.404;2023-07-28T02:13:38;17.80;99.90
13970;DHT22;7057;49.984;8.404;2023-07-28T02:16:05;17.80;99.90
13970;DHT22;7057;49.984;8.404;2023-07-28T02:18:34;17.80;99.90
13970;DHT22;7057;49.984;8.404;2023-07-28T02:21:01;17.80;99.90
13970;DHT22;7057;49.984;8.404;2023-07-28T02:23:28;17.80;99.90
13970;DHT22;7057;49.984;8.404;2023-07-28T02:25:56;17.80;99.90
13970;DHT22;7057;49.984;8.404;2023-07-28T02:28:23;17.70;99.90
13970;DHT22;7057;49.984;8.404;2023-07-28T02:30:50;17.80;99.90
13970;DHT22;7057;49.984;8.404;2023-07-28T02:33:17;17.70;99.90
13970;DHT22;7057;49.984;8.404;2023-07-28T02:35:45;17.70;99.90
13970;DHT22;7057;49.984;8.404;2023-07-28T02:38:13;17.80;99.90
13970;DHT22;7057;49.984;8.404;2023-07-28T02:40:40;17.70;99.90
13970;DHT22;7057;49.984;8.404;2023-07-28T02:43:07;17.70;99.90
13970;DHT22;7057;49.984;8.404;2023-07-28T02:45:34;17.70;99.90
13970;DHT22;7057;49.984;8.404;2023-07-28T02:48:01;17.70;99.90
13970;DHT22;7057;49.984;8.404;2023-07-28T02:50:28;17.70;99.90
13970;DHT22;7057;49.984;8.404;2023-07-28T02:52:57;17.70;99.90
13970;DHT22;7057;49.984;8.404;2023-07-28T02:55:24;17.70;99.90
13970;DHT22;7057;49.984;8.404;2023-07-28T02:57:51;17.70;99.90
13970;DHT22;7057;49.984;8.404;2023-07-28T03:00:18;17.70;99.90
13970;DHT22;7057;49.984;8.404;2023-07-28T03:02:46;17.70;99.90
13970;DHT22;7057;49.984;8.404;2023-07-28T03:05:13;17.70;99.90
13970;DHT22;7057;49.984;8.404;2023-07-28T03:07:40;17.70;99.90
13970;DHT22;7057;49.984;8.404;2023-07-28T03:10:10;17.70;99.90
13970;DHT22;7057;49.984;8.404;2023-07-28T03:12:42;17.70;99.90
13970;DHT22;7057;49.984;8.404;2023-07-28T03:15:09;17.70;99.90
13970;DHT22;7057;49.984;8.404;2023-07-28T03:17:36;17.70;99.90
13970;DHT22;7057;49.984;8.404;2023-07-28T03:20:04;17.70;99.90
13970;DHT22;7057;49.984;8.404;2023-07-28T03:22:32;17.70;99.90
13970;DHT22;7057;49.984;8.404;2023-07-28T03:24:59;17.70;99.90
13970;DHT22;7057;49.984;8.404;2023-07-28T03:27:28;17.60;99.90
13970;DHT22;7057;49.984;8.404;2023-07-28T03:29:55;17.60;99.90
13970;DHT22;7057;49.984;8.404;2023-07-28T03:32:22;17.60;99.90
13970;DHT22;7057;49.984;8.404;2023-07-28T03:34:49;17.60;99.90
13970;DHT22;7057;49.984;8.404;2023-07-28T03:37:16;17.60;99.90
13970;DHT22;7057;49.984;8.404;2023-07-28T03:39:43;17.60;99.90
13970;DHT22;7057;49.984;8.404;2023-07-28T03:42:11;17.60;99.90
13970;DHT22;7057;49.984;8.404;2023-07-28T03:44:39;17.60;99.90
13970;DHT22;7057;49.984;8.404;2023-07-28T03:47:07;17.70;99.90
13970;DHT22;7057;49.984;8.404;2023-07-28T03:49:34;17.70;99.90
13970;DHT22;7057;49.984;8.404;2023-07-28T03:52:02;17.60;99.90
13970;DHT22;7057;49.984;8.404;2023-07-28T03:54:29;17.60;99.90
13970;DHT22;7057;49.984;8.404;2023-07-28T03:56:56;17.70;99.90
13970;DHT22;7057;49.984;8.404;2023-07-28T03:59:23;17.70;99.90
13970;DHT22;7057;49.984;8.404;2023-07-28T04:01:51;17.70;99.90
13970;DHT22;7057;49.984;8.404;2023-07-28T04:04:19;17.70;99.90
13970;DHT22;7057;49.984;8.404;2023-07-28T04:06:48;17.70;99.90
13970;DHT22;7057;49.984;8.404;2023-07-28T04:09:16;17.70;99.90
13970;DHT22;7057;49.984;8.404;2023-07-28T04:11:44;17.70;99.90
13970;DHT22;7057;49.984;8.404;2023-07-28T04:14:11;17.70;99.90
13970;DHT22;7057;49.984;8.404;2023-07-28T04:16:38;17.70;99.90
13970;DHT22;7057;49.984;8.404;2023-07-28T04:19:07;17.80;99.90
13970;DHT22;7057;49.984;8.404;2023-07-28T04:21:34;17.80;99.90
13970;DHT22;7057;49.984;8.404;2023-07-28T04:24:06;17.80;99.90
13970;DHT22;7057;49.984;8.404;2023-07-28T04:26:33;17.90;99.90
13970;DHT22;7057;49.984;8.404;2023-07-28T04:29:00;17.90;99.90
13970;DHT22;7057;49.984;8.404;2023-07-28T04:31:27;17.90;99.90
13970;DHT22;7057;49.984;8.404;2023-07-28T04:33:54;18.00;99.90
13970;DHT22;7057;49.984;8.404;2023-07-28T04:36:23;18.10;99.90
13970;DHT22;7057;49.984;8.404;2023-07-28T04:38:50;18.20;99.90
13970;DHT22;7057;49.984;8.404;2023-07-28T04:41:17;18.20;99.90
13970;DHT22;7057;49.984;8.404;2023-07-28T04:43:44;18.20;99.90
13970;DHT22;7057;49.984;8.404;2023-07-28T04:46:12;18.20;99.90
13970;DHT22;7057;49.984;8.404;2023-07-28T04:48:39;18.30;99.90
13970;DHT22;7057;49.984;8.404;2023-07-28T04:51:06;18.30;99.90
13970;DHT22;7057;49.984;8.404;2023-07-28T04:53:34;18.40;99.90
13970;DHT22;7057;49.984;8.404;2023-07-28T04:56:02;18.40;99.90
13970;DHT22;7057;49.984;8.404;2023-07-28T04:58:29;18.50;99.90
13970;DHT22;7057;49.984;8.404;2023-07-28T05:00:56;18.50;99.90
13970;DHT22;7057;49.984;8.404;2023-07-28T05:03:24;18.50;99.90
13970;DHT22;7057;49.984;8.404;2023-07-28T05:05:51;18.50;99.90
13970;DHT22;7057;49.984;8.404;2023-07-28T05:08:18;18.50;99.90
13970;DHT22;7057;49.984;8.404;2023-07-28T05:10:46;18.50;99.90
13970;DHT22;7057;49.984;8.404;2023-07-28T05:13:14;18.50;99.90
13970;DHT22;7057;49.984;8.404;2023-07-28T05:15:41;18.60;99.90
13970;DHT22;7057;49.984;8.404;2023-07-28T05:18:08;18.70;99.90
13970;DHT22;7057;49.984;8.404;2023-07-28T05:20:35;18.70;99.90
13970;DHT22;7057;49.984;8.404;2023-07-28T05:23:02;18.70;99.90
13970;DHT22;7057;49.984;8.404;2023-07-28T05:25:29;18.80;99.90
13970;DHT22;7057;49.984;8.404;2023-07-28T05:27:58;18.80;99.90
13970;DHT22;7057;49.984;8.404;2023-07-28T05:30:25;18.80;99.90
13970;DHT22;7057;49.984;8.404;2023-07-28T05:32:53;18.90;99.90
13970;DHT22;7057;49.984;8.404;2023-07-28T05:35:21;18.90;99.90
13970;DHT22;7057;49.984;8.404;2023-07-28T05:37:48;18.90;99.90
13970;DHT22;7057;49.984;8.404;2023-07-28T05:40:15;18.90;99.90
13970;DHT22;7057;49.984;8.404;2023-07-28T05:42:42;19.00;99.90
13970;DHT22;7057;49.984;8.404;2023-07-28T05:45:11;19.00;99.90
13970;DHT22;7057;49.984;8.404;2023-07-28T05:47:38;19.00;99.90
13970;DHT22;7057;49.984;8.404;2023-07-28T05:50:06;19.10;99.90
13970;DHT22;7057;49.984;8.404;2023-07-28T05:52:33;19.20;99.90
13970;DHT22;7057;49.984;8.404;2023-07-28T05:55:00;19.10;99.90
13970;DHT22;7057;49.984;8.404;2023-07-28T05:57:27;19.30;99.90
13970;DHT22;7057;49.984;8.404;2023-07-28T05:59:55;19.40;99.90
13970;DHT22;7057;49.984;8.404;2023-07-28T06:02:23;19.70;99.90
13970;DHT22;7057;49.984;8.404;2023-07-28T06:04:51;19.80;99.90
13970;DHT22;7057;49.984;8.404;2023-07-28T06:07:18;20.00;99.90
13970;DHT22;7057;49.984;8.404;2023-07-28T06:09:45;20.10;99.90
13970;DHT22;7057;49.984;8.404;2023-07-28T06:12:12;20.20;99.90
13970;DHT22;7057;49.984;8.404;2023-07-28T06:14:42;20.30;99.90
13970;DHT22;7057;49.984;8.404;2023-07-28T06:17:09;20.30;99.90
13970;DHT22;7057;49.984;8.404;2023-07-28T06:19:37;20.30;99.90
13970;DHT22;7057;49.984;8.404;2023-07-28T06:22:05;20.30;99.90
13970;DHT22;7057;49.984;8.404;2023-07-28T06:24:32;20.30;99.90
13970;DHT22;7057;49.984;8.404;2023-07-28T06:27:00;20.50;99.90
13970;DHT22;7057;49.984;8.404;2023-07-28T06:29:32;20.70;99.90
13970;DHT22;7057;49.984;8.404;2023-07-28T06:32:00;21.10;99.90
13970;DHT22;7057;49.984;8.404;2023-07-28T06:34:27;21.30;99.90
13970;DHT22;7057;49.984;8.404;2023-07-28T06:36:56;21.30;99.90
13970;DHT22;7057;49.984;8.404;2023-07-28T06:39:23;21.30;99.90
13970;DHT22;7057;49.984;8.404;2023-07-28T06:41:51;21.50;99.90
13970;DHT22;7057;49.984;8.404;2023-07-28T06:44:18;21.60;99.90
13970;DHT22;7057;49.984;8.404;2023-07-28T06:46:45;21.60;99.90
13970;DHT22;7057;49.984;8.404;2023-07-28T06:49:13;21.70;99.90
13970;DHT22;7057;49.984;8.404;2023-07-28T06:51:40;21.70;99.90
13970;DHT22;7057;49.984;8.404;2023-07-28T06:54:09;21.70;99.90
13970;DHT22;7057;49.984;8.404;2023-07-28T06:56:38;21.70;99.90
13970;DHT22;7057;49.984;8.404;2023-07-28T06:59:05;21.80;99.90
13970;DHT22;7057;49.984;8.404;2023-07-28T07:01:33;21.90;99.90
13970;DHT22;7057;49.984;8.404;2023-07-28T07:04:00;22.20;99.90
13970;DHT22;7057;49.984;8.404;2023-07-28T07:06:27;22.50;99.90
13970;DHT22;7057;49.984;8.404;2023-07-28T07:08:54;22.80;99.90
13970;DHT22;7057;49.984;8.404;2023-07-28T07:11:23;23.10;99.90
13970;DHT22;7057;49.984;8.404;2023-07-28T07:13:50;23.20;99.90
13970;DHT22;7057;49.984;8.404;2023-07-28T07:16:17;23.10;99.90
13970;DHT22;7057;49.984;8.404;2023-07-28T07:18:44;23.00;99.90
13970;DHT22;7057;49.984;8.404;2023-07-28T07:21:12;23.00;99.90
13970;DHT22;7057;49.984;8.404;2023-07-28T07:23:39;22.90;99.90
13970;DHT22;7057;49.984;8.404;2023-07-28T07:26:06;22.80;99.90
13970;DHT22;7057;49.984;8.404;2023-07-28T07:28:35;22.80;99.90
13970;DHT22;7057;49.984;8.404;2023-07-28T07:31:02;22.70;99.90
13970;DHT22;7057;49.984;8.404;2023-07-28T07:33:29;22.80;99.90
13970;DHT22;7057;49.984;8.404;2023-07-28T07:35:56;22.80;99.90
13970;DHT22;7057;49.984;8.404;2023-07-28T07:38:23;22.60;99.90
13970;DHT22;7057;49.984;8.404;2023-07-28T07:40:51;22.30;99.90
13970;DHT22;7057;49.984;8.404;2023-07-28T07:43:18;22.10;99.90
13970;DHT22;7057;49.984;8.404;2023-07-28T07:45:47;21.90;99.90
13970;DHT22;7057;49.984;8.404;2023-07-28T07:48:16;21.80;99.90
13970;DHT22;7057;49.984;8.404;2023-07-28T07:50:43;21.80;99.90
13970;DHT22;7057;49.984;8.404;2023-07-28T07:53:10;21.80;99.90
13970;DHT22;7057;49.984;8.404;2023-07-28T07:55:37;21.80;99.90
13970;DHT22;7057;49.984;8.404;2023-07-28T07:58:04;21.90;99.90
13970;DHT22;7057;49.984;8.404;2023-07-28T08:00:32;22.00;99.90
13970;DHT22;7057;49.984;8.404;2023-07-28T08:03:01;22.10;99.90
13970;DHT22;7057;49.984;8.404;2023-07-28T08:05:28;22.20;99.90
13970;DHT22;7057;49.984;8.404;2023-07-28T08:07:55;22.30;99.90
13970;DHT22;7057;49.984;8.404;2023-07-28T08:10:22;22.40;99.90
13970;DHT22;7057;49.984;8.404;2023-07-28T08:12:50;22.40;99.90
13970;DHT22;7057;49.984;8.404;2023-07-28T08:15:17;22.40;99.90
13970;DHT22;7057;49.984;8.404;2023-07-28T08:17:45;22.30;99.90
13970;DHT22;7057;49.984;8.404;2023-07-28T08:20:13;22.50;99.90
13970;DHT22;7057;49.984;8.404;2023-07-28T08:22:41;22.70;99.90
13970;DHT22;7057;49.984;8.404;2023-07-28T08:25:08;22.90;99.90
13970;DHT22;7057;49.984;8.404;2023-07-28T08:27:35;23.20;99.90
13970;DHT22;7057;49.984;8.404;2023-07-28T08:30:03;23.20;99.90
13970;DHT22;7057;49.984;8.404;2023-07-28T08:32:31;23.30;99.90
13970;DHT22;7057;49.984;8.404;2023-07-28T08:34:58;23.20;99.90
13970;DHT22;7057;49.984;8.404;2023-07-28T08:37:27;23.20;99.90
13970;DHT22;7057;49.984;8.404;2023-07-28T08:39:55;23.20;99.90
13970;DHT22;7057;49.984;8.404;2023-07-28T08:42:22;23.20;99.90
13970;DHT22;7057;49.984;8.404;2023-07-28T08:44:49;23.40;99.90
13970;DHT22;7057;49.984;8.404;2023-07-28T08:47:18;23.40;99.90
13970;DHT22;7057;49.984;8.404;2023-07-28T08:49:45;23.50;99.90
13970;DHT22;7057;49.984;8.404;2023-07-28T08:52:16;23.60;99.90
13970;DHT22;7057;49.984;8.404;2023-07-28T08:54:45;23.60;99.90
13970;DHT22;7057;49.984;8.404;2023-07-28T08:57:12;23.70;99.90
13970;DHT22;7057;49.984;8.404;2023-07-28T08:59:40;23.80;99.90
13970;DHT22;7057;49.984;8.404;2023-07-28T09:02:14;23.90;99.90
13970;DHT22;7057;49.984;8.404;2023-07-28T09:04:42;23.80;99.90
13970;DHT22;7057;49.984;8.404;2023-07-28T09:07:09;23.70;99.90
13970;DHT22;7057;49.984;8.404;2023-07-28T09:09:37;23.70;99.90
13970;DHT22;7057;49.984;8.404;2023-07-28T09:12:06;23.60;99.90
13970;DHT22;7057;49.984;8.404;2023-07-28T09:14:36;23.70;99.90
13970;DHT22;7057;49.984;8.404;2023-07-28T09:17:07;23.80;99.90
13970;DHT22;7057;49.984;8.404;2023-07-28T09:19:34;24.10;99.90
13970;DHT22;7057;49.984;8.404;2023-07-28T09:22:02;24.20;99.90
13970;DHT22;7057;49.984;8.404;2023-07-28T09:24:31;24.30;99.90
13970;DHT22;7057;49.984;8.404;2023-07-28T09:26:59;24.30;99.90
13970;DHT22;7057;49.984;8.404;2023-07-28T09:29:28;24.40;99.90
13970;DHT22;7057;49.984;8.404;2023-07-28T09:32:03;24.50;99.90
13970;DHT22;7057;49.984;8.404;2023-07-28T09:34:30;24.50;99.90
13970;DHT22;7057;49.984;8.404;2023-07-28T09:36:59;24.40;99.90
13970;DHT22;7057;49.984;8.404;2023-07-28T09:39:27;24.30;99.90
13970;DHT22;7057;49.984;8.404;2023-07-28T09:41:54;24.10;99.90
13970;DHT22;7057;49.984;8.404;2023-07-28T09:44:24;24.00;99.90
13970;DHT22;7057;49.984;8.404;2023-07-28T09:46:54;23.90;99.90
13970;DHT22;7057;49.984;8.404;2023-07-28T09:49:27;23.70;99.90
13970;DHT22;7057;49.984;8.404;2023-07-28T09:51:59;23.50;99.90
13970;DHT22;7057;49.984;8.404;2023-07-28T09:54:29;23.40;99.90
13970;DHT22;7057;49.984;8.404;2023-07-28T09:56:57;23.40;99.90
13970;DHT22;7057;49.984;8.404;2023-07-28T09:59:29;23.40;99.90
13970;DHT22;7057;49.984;8.404;2023-07-28T10:01:58;23.50;99.90
13970;DHT22;7057;49.984;8.404;2023-07-28T10:04:26;23.70;99.90
13970;DHT22;7057;49.984;8.404;2023-07-28T10:06:53;23.90;99.90
13970;DHT22;7057;49.984;8.404;2023-07-28T10:09:23;24.10;99.90
13970;DHT22;7057;49.984;8.404;2023-07-28T10:11:51;24.30;99.90
13970;DHT22;7057;49.984;8.404;2023-07-28T10:14:28;24.50;99.90
13970;DHT22;7057;49.984;8.404;2023-07-28T10:16:58;24.50;99.90
13970;DHT22;7057;49.984;8.404;2023-07-28T10:19:27;24.50;99.90
13970;DHT22;7057;49.984;8.404;2023-07-28T10:22:02;24.50;99.90
13970;DHT22;7057;49.984;8.404;2023-07-28T10:24:52;24.40;99.90
13970;DHT22;7057;49.984;8.404;2023-07-28T10:27:29;24.30;99.90
13970;DHT22;7057;49.984;8.404;2023-07-28T10:29:57;24.10;99.90
13970;DHT22;7057;49.984;8.404;2023-07-28T10:32:29;24.00;99.90
13970;DHT22;7057;49.984;8.404;2023-07-28T10:35:06;23.80;99.90
13970;DHT22;7057;49.984;8.404;2023-07-28T10:37:35;23.80;99.90
13970;DHT22;7057;49.984;8.404;2023-07-28T10:40:22;24.00;99.90
13970;DHT22;7057;49.984;8.404;2023-07-28T10:42:51;24.30;99.90
13970;DHT22;7057;49.984;8.404;2023-07-28T10:45:18;24.70;99.90
13970;DHT22;7057;49.984;8.404;2023-07-28T10:47:48;24.90;99.90
13970;DHT22;7057;49.984;8.404;2023-07-28T10:50:15;24.90;99.90
13970;DHT22;7057;49.984;8.404;2023-07-28T10:52:44;24.80;99.90
13970;DHT22;7057;49.984;8.404;2023-07-28T10:55:14;24.70;99.90
13970;DHT22;7057;49.984;8.404;2023-07-28T10:57:42;24.70;99.90
13970;DHT22;7057;49.984;8.404;2023-07-28T11:00:11;24.60;99.90
13970;DHT22;7057;49.984;8.404;2023-07-28T11:02:41;24.60;99.90
13970;DHT22;7057;49.984;8.404;2023-07-28T11:05:13;24.50;99.90
13970;DHT22;7057;49.984;8.404;2023-07-28T11:07:41;24.30;99.90
13970;DHT22;7057;49.984;8.404;2023-07-28T11:10:09;24.10;99.90
13970;DHT22;7057;49.984;8.404;2023-07-28T11:12:41;24.00;99.90
13970;DHT22;7057;49.984;8.404;2023-07-28T11:15:10;23.90;99.90
13970;DHT22;7057;49.984;8.404;2023-07-28T11:17:38;23.90;99.90
13970;DHT22;7057;49.984;8.404;2023-07-28T11:20:15;24.00;99.90
13970;DHT22;7057;49.984;8.404;2023-07-28T11:22:43;24.20;99.90
13970;DHT22;7057;49.984;8.404;2023-07-28T11:25:11;24.50;99.90
13970;DHT22;7057;49.984;8.404;2023-07-28T11:27:39;24.80;99.90
13970;DHT22;7057;49.984;8.404;2023-07-28T11:30:07;25.10;99.90
13970;DHT22;7057;49.984;8.404;2023-07-28T11:32:36;25.30;99.90
13970;DHT22;7057;49.984;8.404;2023-07-28T11:35:05;25.40;99.90
13970;DHT22;7057;49.984;8.404;2023-07-28T11:37:35;25.40;99.90
13970;DHT22;7057;49.984;8.404;2023-07-28T11:40:05;25.30;99.90
13970;DHT22;7057;49.984;8.404;2023-07-28T11:42:34;25.10;99.90
13970;DHT22;7057;49.984;8.404;2023-07-28T11:45:02;24.90;99.90
13970;DHT22;7057;49.984;8.404;2023-07-28T11:47:30;24.70;99.90
13970;DHT22;7057;49.984;8.404;2023-07-28T11:49:57;24.50;99.90
13970;DHT22;7057;49.984;8.404;2023-07-28T11:52:30;24.30;99.90
13970;DHT22;7057;49.984;8.404;2023-07-28T11:54:59;24.10;99.90
13970;DHT22;7057;49.984;8.404;2023-07-28T11:57:27;24.00;99.90
13970;DHT22;7057;49.984;8.404;2023-07-28T11:59:57;23.90;99.90
13970;DHT22;7057;49.984;8.404;2023-07-28T12:02:25;23.80;99.90
13970;DHT22;7057;49.984;8.404;2023-07-28T12:04:54;23.70;99.90
13970;DHT22;7057;49.984;8.404;2023-07-28T12:07:28;23.60;99.90
13970;DHT22;7057;49.984;8.404;2023-07-28T12:09:55;23.40;99.90
13970;DHT22;7057;49.984;8.404;2023-07-28T12:12:28;23.30;99.90
13970;DHT22;7057;49.984;8.404;2023-07-28T12:14:56;23.30;99.90
13970;DHT22;7057;49.984;8.404;2023-07-28T12:17:26;23.40;99.90
13970;DHT22;7057;49.984;8.404;2023-07-28T12:20:02;23.50;99.90
13970;DHT22;7057;49.984;8.404;2023-07-28T12:22:32;23.60;99.90
13970;DHT22;7057;49.984;8.404;2023-07-28T12:25:00;23.70;99.90
13970;DHT22;7057;49.984;8.404;2023-07-28T12:27:28;23.90;99.90
13970;DHT22;7057;49.984;8.404;2023-07-28T12:29:56;24.10;99.90
13970;DHT22;7057;49.984;8.404;2023-07-28T12:32:23;24.20;99.90
13970;DHT22;7057;49.984;8.404;2023-07-28T12:34:50;24.40;99.90
13970;DHT22;7057;49.984;8.404;2023-07-28T12:37:19;24.60;99.90
13970;DHT22;7057;49.984;8.404;2023-07-28T12:39:47;24.70;99.90
13970;DHT22;7057;49.984;8.404;2023-07-28T12:42:14;24.70;99.90
13970;DHT22;7057;49.984;8.404;2023-07-28T12:44:43;24.80;99.90
13970;DHT22;7057;49.984;8.404;2023-07-28T12:47:10;24.90;99.90
13970;DHT22;7057;49.984;8.404;2023-07-28T12:49:38;25.00;99.90
13970;DHT22;7057;49.984;8.404;2023-07-28T12:52:06;25.10;99.90
13970;DHT22;7057;49.984;8.404;2023-07-28T12:54:35;25.20;99.90
13970;DHT22;7057;49.984;8.404;2023-07-28T12:57:02;25.20;99.90
13970;DHT22;7057;49.984;8.404;2023-07-28T12:59:30;25.20;99.90
13970;DHT22;7057;49.984;8.404;2023-07-28T13:01:58;25.20;99.90
13970;DHT22;7057;49.984;8.404;2023-07-28T13:04:25;25.20;99.90
13970;DHT22;7057;49.984;8.404;2023-07-28T13:06:52;25.20;99.90
13970;DHT22;7057;49.984;8.404;2023-07-28T13:09:20;25.10;99.90
13970;DHT22;7057;49.984;8.404;2023-07-28T13:11:47;25.00;99.90
13970;DHT22;7057;49.984;8.404;2023-07-28T13:14:14;24.90;99.90
13970;DHT22;7057;49.984;8.404;2023-07-28T13:16:41;24.80;99.90
13970;DHT22;7057;49.984;8.404;2023-07-28T13:19:11;24.70;99.90
13970;DHT22;7057;49.984;8.404;2023-07-28T13:21:38;24.50;99.90
13970;DHT22;7057;49.984;8.404;2023-07-28T13:24:06;24.40;99.90
13970;DHT22;7057;49.984;8.404;2023-07-28T13:26:33;24.30;99.90
13970;DHT22;7057;49.984;8.404;2023-07-28T13:29:00;24.30;99.90
13970;DHT22;7057;49.984;8.404;2023-07-28T13:31:28;24.10;99.90
13970;DHT22;7057;49.984;8.404;2023-07-28T13:33:55;24.00;99.90
13970;DHT22;7057;49.984;8.404;2023-07-28T13:36:23;23.90;99.90
13970;DHT22;7057;49.984;8.404;2023-07-28T13:38:50;23.80;99.90
13970;DHT22;7057;49.984;8.404;2023-07-28T13:41:18;23.80;99.90
13970;DHT22;7057;49.984;8.404;2023-07-28T13:43:45;23.80;99.90
13970;DHT22;7057;49.984;8.404;2023-07-28T13:46:12;23.80;99.90
13970;DHT22;7057;49.984;8.404;2023-07-28T13:48:39;23.80;99.90
13970;DHT22;7057;49.984;8.404;2023-07-28T13:51:06;23.70;99.90
13970;DHT22;7057;49.984;8.404;2023-07-28T13:53:35;23.60;99.90
13970;DHT22;7057;49.984;8.404;2023-07-28T13:56:02;23.70;99.90
13970;DHT22;7057;49.984;8.404;2023-07-28T13:58:30;23.80;99.90
13970;DHT22;7057;49.984;8.404;2023-07-28T14:00:57;23.80;99.90
13970;DHT22;7057;49.984;8.404;2023-07-28T14:03:24;23.80;99.90
13970;DHT22;7057;49.984;8.404;2023-07-28T14:05:51;23.80;99.90
13970;DHT22;7057;49.984;8.404;2023-07-28T14:08:19;23.80;99.90
13970;DHT22;7057;49.984;8.404;2023-07-28T14:10:47;23.70;99.90
13970;DHT22;7057;49.984;8.404;2023-07-28T14:13:14;23.70;99.90
13970;DHT22;7057;49.984;8.404;2023-07-28T14:15:41;23.70;99.90
13970;DHT22;7057;49.984;8.404;2023-07-28T14:18:09;23.70;99.90
13970;DHT22;7057;49.984;8.404;2023-07-28T14:20:36;23.70;99.90
13970;DHT22;7057;49.984;8.404;2023-07-28T14:23:21;23.70;99.90
13970;DHT22;7057;49.984;8.404;2023-07-28T14:25:51;23.70;99.90
13970;DHT22;7057;49.984;8.404;2023-07-28T14:28:19;23.70;99.90
13970;DHT22;7057;49.984;8.404;2023-07-28T14:30:46;23.70;99.90
13970;DHT22;7057;49.984;8.404;2023-07-28T14:33:14;23.70;99.90
13970;DHT22;7057;49.984;8.404;2023-07-28T14:35:43;23.80;99.90
13970;DHT22;7057;49.984;8.404;2023-07-28T14:38:11;23.90;99.90
13970;DHT22;7057;49.984;8.404;2023-07-28T14:40:38;23.90;99.90
13970;DHT22;7057;49.984;8.404;2023-07-28T14:43:07;23.80;99.90
13970;DHT22;7057;49.984;8.404;2023-07-28T14:45:34;23.70;99.90
13970;DHT22;7057;49.984;8.404;2023-07-28T14:48:02;23.60;99.90
13970;DHT22;7057;49.984;8.404;2023-07-28T14:50:29;23.80;99.90
13970;DHT22;7057;49.984;8.404;2023-07-28T14:52:58;23.50;99.90
13970;DHT22;7057;49.984;8.404;2023-07-28T14:55:25;23.60;99.90
13970;DHT22;7057;49.984;8.404;2023-07-28T14:57:52;23.60;99.90
13970;DHT22;7057;49.984;8.404;2023-07-28T15:00:21;23.70;99.90
13970;DHT22;7057;49.984;8.404;2023-07-28T15:02:48;23.70;99.90
13970;DHT22;7057;49.984;8.404;2023-07-28T15:05:15;23.70;99.90
13970;DHT22;7057;49.984;8.404;2023-07-28T15:07:42;23.80;99.90
13970;DHT22;7057;49.984;8.404;2023-07-28T15:10:10;23.80;99.90
13970;DHT22;7057;49.984;8.404;2023-07-28T15:12:37;23.90;99.90
13970;DHT22;7057;49.984;8.404;2023-07-28T15:15:05;23.90;99.90
13970;DHT22;7057;49.984;8.404;2023-07-28T15:17:34;23.90;99.90
13970;DHT22;7057;49.984;8.404;2023-07-28T15:20:01;24.00;99.90
13970;DHT22;7057;49.984;8.404;2023-07-28T15:22:28;24.10;99.90
13970;DHT22;7057;49.984;8.404;2023-07-28T15:24:55;24.20;99.90
13970;DHT22;7057;49.984;8.404;2023-07-28T15:27:22;24.20;99.90
13970;DHT22;7057;49.984;8.404;2023-07-28T15:29:49;24.20;99.90
13970;DHT22;7057;49.984;8.404;2023-07-28T15:32:17;24.10;99.90
13970;DHT22;7057;49.984;8.404;2023-07-28T15:34:45;24.00;99.90
13970;DHT22;7057;49.984;8.404;2023-07-28T15:37:12;24.00;99.90
13970;DHT22;7057;49.984;8.404;2023-07-28T15:39:39;23.90;99.90
13970;DHT22;7057;49.984;8.404;2023-07-28T15:42:07;23.90;99.90
13970;DHT22;7057;49.984;8.404;2023-07-28T15:44:34;24.00;99.90
13970;DHT22;7057;49.984;8.404;2023-07-28T15:47:02;24.10;99.90
13970;DHT22;7057;49.984;8.404;2023-07-28T15:49:29;24.20;99.90